Time;durP1;ratioP1;P1;durP2;ratioP2;P2;SDS_P1;SDS_P2;PMS_P1;PMS_P2;Temp;Humidity;BMP_temperature;BMP_pressure;BME280_temperature;BME280_humidity;BME280_pressure;Samples;Min_cycle;Max_cycle;Signal;HPM_P1;HPM_P2
2022/08/10 00:01:15;;;;;;;8.02;5.70;;;;;;;22.75;49.67;95593.44;5026345;28;20091;-82
2022/08/10 00:03:40;;;;;;;7.03;5.80;;;;;;;22.70;49.91;95587.88;5026848;28;20021;-82
2022/08/10 00:06:05;;;;;;;9.30;6.00;;;;;;;22.70;50.18;95579.69;5026528;28;20464;-81
2022/08/10 00:08:31;;;;;;;8.65;5.85;;;;;;;22.58;50.08;95580.63;5026736;28;20017;-82
2022/08/10 00:10:56;;;;;;;7.50;5.97;;;;;;;22.60;50.18;95580.41;5026101;28;20056;-82
2022/08/10 00:13:23;;;;;;;8.35;5.90;;;;;;;22.57;50.83;95575.41;5026448;28;20562;-83
2022/08/10 00:15:49;;;;;;;7.57;5.50;;;;;;;22.37;51.13;95574.00;5026405;28;20053;-84
2022/08/10 00:18:14;;;;;;;10.27;5.80;;;;;;;22.45;51.24;95575.47;5026260;28;20480;-83
2022/08/10 00:20:39;;;;;;;7.40;5.88;;;;;;;22.55;51.04;95572.91;5026324;28;20415;-83
2022/08/10 00:23:05;;;;;;;8.18;5.88;;;;;;;22.58;51.08;95577.88;5026519;28;20021;-83
2022/08/10 00:25:30;;;;;;;7.47;5.78;;;;;;;22.55;50.91;95581.13;5026155;28;20025;-83
2022/08/10 00:27:56;;;;;;;6.78;5.72;;;;;;;22.54;51.17;95584.91;5026043;28;20033;-83
2022/08/10 00:30:21;;;;;;;8.27;6.43;;;;;;;22.55;51.00;95588.47;5026090;28;20025;-82
2022/08/10 00:32:47;;;;;;;6.60;5.90;;;;;;;22.37;52.18;95589.56;5025850;28;20037;-82
2022/08/10 00:35:12;;;;;;;7.65;5.72;;;;;;;22.41;52.03;95580.59;5026063;28;20025;-82
2022/08/10 00:37:38;;;;;;;7.50;5.90;;;;;;;22.47;52.21;95581.53;5026113;28;20026;-83
2022/08/10 00:40:04;;;;;;;6.70;5.85;;;;;;;22.52;51.59;95583.50;5025982;28;20448;-82
2022/08/10 00:42:29;;;;;;;7.57;6.65;;;;;;;22.57;51.72;95589.88;5025727;28;20029;-82
2022/08/10 00:44:55;;;;;;;6.43;5.43;;;;;;;22.56;51.20;95585.50;5026072;28;20021;-83
2022/08/10 00:47:20;;;;;;;9.15;6.07;;;;;;;22.56;50.30;95582.75;5025635;28;20022;-82
2022/08/10 00:49:46;;;;;;;7.38;5.82;;;;;;;22.58;50.89;95591.53;5025904;28;20026;-82
2022/08/10 00:52:12;;;;;;;7.32;6.38;;;;;;;22.55;50.42;95597.50;5024809;28;20029;-81
2022/08/10 00:54:37;;;;;;;6.15;5.55;;;;;;;22.42;51.02;95592.38;5024417;28;20022;-82
2022/08/10 00:57:03;;;;;;;7.18;5.85;;;;;;;22.37;51.00;95600.47;5024582;28;20033;-82
2022/08/10 00:59:32;;;;;;;6.70;5.88;;;;;;;22.43;51.76;95589.38;5025714;28;20030;-82
2022/08/10 01:01:58;;;;;;;7.40;6.05;;;;;;;22.44;51.66;95590.22;5025890;28;20048;-81
2022/08/10 01:04:24;;;;;;;12.32;6.20;;;;;;;22.46;52.08;95596.25;5025935;28;20021;-82
2022/08/10 01:07:10;;;;;;;6.22;5.63;;;;;;;22.49;51.38;95593.03;5029795;28;20022;-81
2022/08/10 01:10:07;;;;;;;8.23;6.30;;;;;;;22.56;51.47;95599.16;5028618;28;20108;-82
2022/08/10 01:12:50;;;;;;;8.10;5.97;;;;;;;22.51;51.85;95595.50;5028469;28;20469;-83
2022/08/10 01:15:18;;;;;;;;;;;;;;;22.46;51.66;95601.72;5012959;28;20427;-83
2022/08/10 01:17:55;;;;;;;6.50;5.78;;;;;;;22.39;52.28;95590.97;5028258;28;20483;-85
2022/08/10 01:21:05;;;;;;;7.82;5.65;;;;;;;22.37;51.94;95593.13;5029258;28;20492;-83
2022/08/10 01:23:39;;;;;;;7.93;6.07;;;;;;;22.31;52.73;95597.66;5029412;28;20095;-83
2022/08/10 01:26:11;;;;;;;7.72;6.32;;;;;;;22.33;52.31;95589.22;5028439;28;20033;-84
2022/08/10 01:28:46;;;;;;;6.32;5.55;;;;;;;22.33;51.20;95586.47;5029089;28;20030;-84
2022/08/10 01:31:17;;;;;;;8.25;6.57;;;;;;;22.19;52.66;95591.47;5029518;28;20087;-84
2022/08/10 01:33:46;;;;;;;7.27;5.90;;;;;;;22.16;52.81;95600.16;5011758;28;20419;-85
2022/08/10 01:36:15;;;;;;;7.22;5.63;;;;;;;22.23;51.92;95589.91;5011875;28;20104;-85
2022/08/10 01:38:47;;;;;;;6.80;5.50;;;;;;;22.25;50.34;95597.84;5029228;28;20075;-85
2022/08/10 01:41:14;;;;;;;7.32;5.72;;;;;;;22.20;50.80;95593.09;5011748;28;20056;-84
2022/08/10 01:43:42;;;;;;;7.82;5.75;;;;;;;22.12;51.15;95594.34;5027953;28;20397;-85
2022/08/10 01:46:07;;;;;;;7.10;5.85;;;;;;;22.05;51.98;95594.53;5027530;28;20021;-84
2022/08/10 01:48:38;;;;;;;8.13;5.47;;;;;;;21.98;51.78;95594.66;5011907;28;20075;-85
2022/08/10 01:51:13;;;;;;;8.50;5.97;;;;;;;21.99;52.16;95590.03;5011576;28;20041;-84
2022/08/10 01:53:45;;;;;;;8.85;6.13;;;;;;;22.00;52.54;95580.78;5027359;28;20040;-84
2022/08/10 01:56:12;;;;;;;6.78;5.82;;;;;;;21.94;52.52;95592.69;5029187;28;20088;-84
2022/08/10 01:58:37;;;;;;;10.55;6.25;;;;;;;21.97;52.89;95578.53;5028900;28;20034;-85
2022/08/10 02:01:03;;;;;;;10.55;6.25;;;;;;;21.98;52.84;95574.72;5027688;28;20171;-82
2022/08/10 02:03:28;;;;;;;8.15;6.30;;;;;;;21.95;52.75;95572.50;5027626;28;20789;-81
2022/08/10 02:05:54;;;;;;;6.63;5.45;;;;;;;21.96;53.10;95579.59;5011089;28;20175;-82
2022/08/10 02:08:20;;;;;;;10.00;6.15;;;;;;;21.91;52.53;95572.16;5029174;28;20021;-81
2022/08/10 02:10:46;;;;;;;9.75;6.10;;;;;;;21.90;53.19;95575.97;5024681;28;20516;-82
2022/08/10 02:13:11;;;;;;;7.55;6.50;;;;;;;21.84;53.14;95572.28;5027431;28;20034;-83
2022/08/10 02:15:38;;;;;;;6.85;6.15;;;;;;;21.83;52.99;95586.19;5027057;28;20037;-83
2022/08/10 02:18:04;;;;;;;7.45;5.93;;;;;;;21.82;53.32;95590.00;5027076;28;20123;-82
2022/08/10 02:20:45;;;;;;;8.23;5.95;;;;;;;21.82;52.90;95588.09;5010512;28;20025;-81
2022/08/10 02:23:16;;;;;;;7.00;6.20;;;;;;;21.78;52.67;95583.38;5012646;28;20045;-82
2022/08/10 02:25:41;;;;;;;9.35;6.10;;;;;;;21.69;53.19;95585.63;5028340;28;20420;-80
2022/08/10 02:28:07;;;;;;;7.88;6.30;;;;;;;21.67;53.01;95587.78;5028537;28;20022;-80
2022/08/10 02:30:32;;;;;;;10.48;6.93;;;;;;;21.57;53.76;95591.97;5027099;28;20202;-81
2022/08/10 02:32:58;;;;;;;9.70;7.10;;;;;;;21.51;54.11;95595.66;5010913;28;20526;-82
2022/08/10 02:35:23;;;;;;;10.18;6.85;;;;;;;21.46;53.89;95581.94;5011046;28;20025;-83
2022/08/10 02:37:50;;;;;;;10.70;7.07;;;;;;;21.46;53.68;95593.69;5026625;28;20485;-83
2022/08/10 02:40:15;;;;;;;10.70;7.07;;;;;;;21.42;54.17;95589.78;5028723;28;20025;-84
2022/08/10 02:42:43;;;;;;;8.45;6.32;;;;;;;21.41;53.84;95598.22;5028219;28;20041;-84
2022/08/10 02:45:15;;;;;;;10.43;6.28;;;;;;;21.35;53.89;95594.53;5027394;28;20033;-83
2022/08/10 02:47:44;;;;;;;8.45;6.50;;;;;;;21.31;54.25;95594.19;5026991;28;20022;-83
2022/08/10 02:50:27;;;;;;;9.73;7.30;;;;;;;21.23;54.73;95591.88;5026964;28;20041;-85
2022/08/10 02:52:58;;;;;;;12.13;6.88;;;;;;;21.19;54.91;95590.66;5026818;28;20029;-83
2022/08/10 02:55:50;;;;;;;8.98;6.93;;;;;;;21.12;54.58;95594.38;5026392;28;20428;-82
2022/08/10 02:58:43;;;;;;;8.18;6.75;;;;;;;21.12;54.49;95599.81;5026658;28;20108;-84
2022/08/10 03:01:10;;;;;;;7.88;6.32;;;;;;;21.07;53.85;95602.44;5025390;28;20432;-84
2022/08/10 03:03:47;;;;;;;11.93;6.70;;;;;;;21.02;54.09;95599.63;5026230;28;20106;-84
2022/08/10 03:06:14;;;;;;;9.10;6.00;;;;;;;20.95;54.07;95599.75;5027828;28;20492;-84
2022/08/10 03:08:42;;;;;;;8.48;5.88;;;;;;;20.95;54.34;95599.75;5026393;28;20113;-84
2022/08/10 03:11:11;;;;;;;7.72;5.80;;;;;;;20.94;54.14;95597.25;5026096;28;20053;-86
2022/08/10 03:13:36;;;;;;;7.38;6.07;;;;;;;20.97;54.22;95597.56;5010156;28;20160;-83
2022/08/10 03:16:02;;;;;;;7.10;5.90;;;;;;;20.97;54.30;95604.94;5025978;28;20029;-83
2022/08/10 03:18:28;;;;;;;9.32;6.57;;;;;;;20.91;54.53;95614.06;5009706;28;20084;-83
2022/08/10 03:20:53;;;;;;;8.25;6.20;;;;;;;20.90;54.72;95602.31;5009839;28;20029;-83
2022/08/10 03:23:21;;;;;;;7.70;6.32;;;;;;;20.85;55.16;95608.47;5026105;28;20435;-82
2022/08/10 03:25:48;;;;;;;9.23;6.28;;;;;;;20.78;55.54;95607.75;5025908;28;20542;-82
2022/08/10 03:28:14;;;;;;;7.63;6.10;;;;;;;20.78;55.57;95615.13;5025353;28;20082;-83
2022/08/10 03:30:39;;;;;;;8.48;6.65;;;;;;;20.75;55.52;95605.50;5009930;28;20037;-82
2022/08/10 03:33:05;;;;;;;8.15;6.20;;;;;;;20.67;55.52;95608.63;5014100;28;20025;-83
2022/08/10 03:35:31;;;;;;;7.43;6.50;;;;;;;20.61;56.16;95619.41;5010530;28;20018;-83
2022/08/10 03:37:56;;;;;;;6.72;6.03;;;;;;;20.58;56.32;95611.69;5036242;28;20033;-82
2022/08/10 03:40:22;;;;;;;8.23;6.13;;;;;;;20.58;56.45;95605.41;5027011;28;20026;-83
2022/08/10 03:42:47;;;;;;;7.85;6.38;;;;;;;20.54;56.20;95605.03;5009127;28;20021;-83
2022/08/10 03:45:13;;;;;;;10.15;6.28;;;;;;;20.61;55.42;95615.84;5025618;28;20471;-83
2022/08/10 03:47:38;;;;;;;10.55;6.18;;;;;;;20.62;55.58;95621.03;5009071;28;20025;-85
2022/08/10 03:50:04;;;;;;;8.10;6.53;;;;;;;20.52;55.78;95623.53;5008752;28;20080;-85
2022/08/10 03:52:30;;;;;;;10.20;6.57;;;;;;;20.32;56.28;95629.31;5009160;28;20071;-85
2022/08/10 03:54:55;;;;;;;10.65;7.20;;;;;;;20.33;57.03;95620.91;5009043;28;20507;-85
2022/08/10 03:57:21;;;;;;;7.95;6.60;;;;;;;20.24;57.70;95625.88;5008884;28;20025;-86
2022/08/10 03:59:46;;;;;;;9.85;7.10;;;;;;;20.28;57.61;95628.13;5025358;28;20021;-84
2022/08/10 04:02:12;;;;;;;8.52;7.28;;;;;;;20.22;58.00;95627.16;5027794;28;20091;-83
2022/08/10 04:04:37;;;;;;;11.27;7.22;;;;;;;20.21;58.25;95628.22;5008228;28;20032;-84
2022/08/10 04:07:03;;;;;;;8.25;6.93;;;;;;;20.23;58.24;95628.81;5025895;28;20033;-82
2022/08/10 04:09:30;;;;;;;9.95;7.30;;;;;;;20.21;58.36;95625.50;5025304;28;20021;-85
2022/08/10 04:11:55;;;;;;;8.45;7.00;;;;;;;20.29;58.23;95629.78;5026636;28;20046;-83
2022/08/10 04:14:20;;;;;;;9.93;7.10;;;;;;;20.36;57.37;95636.75;5026471;28;20036;-83
2022/08/10 04:16:46;;;;;;;10.32;6.88;;;;;;;20.33;57.43;95626.34;5026387;28;20060;-83
2022/08/10 04:19:12;;;;;;;7.88;6.88;;;;;;;20.38;57.34;95637.38;5029126;28;20021;-84
2022/08/10 04:21:38;;;;;;;8.50;6.35;;;;;;;20.40;56.87;95641.75;5029207;28;20052;-84
2022/08/10 04:24:04;;;;;;;11.68;6.60;;;;;;;20.48;56.96;95634.06;5031352;28;20029;-83
2022/08/10 04:26:30;;;;;;;10.23;6.85;;;;;;;20.62;56.71;95648.28;5025278;28;20025;-84
2022/08/10 04:28:55;;;;;;;8.43;7.20;;;;;;;20.68;57.00;95642.97;5026530;28;20420;-81
2022/08/10 04:31:21;;;;;;;8.88;6.72;;;;;;;20.76;57.39;95642.63;5008637;28;20543;-81
2022/08/10 04:33:48;;;;;;;8.52;7.15;;;;;;;20.88;57.65;95639.88;5008481;28;20561;-83
2022/08/10 04:36:14;;;;;;;10.93;7.30;;;;;;;20.92;57.73;95637.53;5025337;28;20044;-83
2022/08/10 04:38:40;;;;;;;8.77;7.15;;;;;;;21.04;57.77;95643.81;5007725;28;20519;-84
2022/08/10 04:41:05;;;;;;;10.68;7.03;;;;;;;21.04;58.19;95637.53;5024551;28;20017;-83
2022/08/10 04:43:31;;;;;;;9.70;7.53;;;;;;;21.23;57.63;95640.94;5009446;28;20070;-84
2022/08/10 04:45:56;;;;;;;10.02;7.05;;;;;;;21.38;56.89;95645.06;5025173;28;20029;-82
2022/08/10 04:48:23;;;;;;;9.00;6.75;;;;;;;21.56;56.32;95644.91;5025752;28;20030;-83
2022/08/10 04:50:48;;;;;;;9.70;6.70;;;;;;;21.66;55.31;95644.28;5025434;28;20037;-84
2022/08/10 04:53:14;;;;;;;10.20;6.70;;;;;;;21.74;55.33;95646.63;5026280;28;20507;-83
2022/08/10 04:55:39;;;;;;;11.13;7.32;;;;;;;21.85;55.23;95639.47;5025610;28;20477;-83
2022/08/10 04:58:05;;;;;;;10.65;7.00;;;;;;;21.94;55.31;95639.91;5026200;28;20013;-82
2022/08/10 05:00:30;;;;;;;10.30;7.13;;;;;;;22.05;55.74;95642.84;5025584;28;20017;-82
2022/08/10 05:02:55;;;;;;;10.32;7.53;;;;;;;22.16;55.29;95636.50;5026072;28;20021;-84
2022/08/10 05:05:21;;;;;;;9.25;7.43;;;;;;;22.25;55.91;95644.28;5025754;28;20022;-85
2022/08/10 05:07:46;;;;;;;9.15;7.63;;;;;;;22.20;56.29;95639.53;5025179;28;20028;-84
2022/08/10 05:10:12;;;;;;;8.90;7.63;;;;;;;22.17;56.74;95645.50;5025506;28;20060;-84
2022/08/10 05:12:37;;;;;;;10.32;7.68;;;;;;;22.37;56.80;95642.31;5025312;28;20026;-84
2022/08/10 05:15:13;;;;;;;14.52;8.40;;;;;;;22.33;57.53;95644.69;5025930;28;20033;-85
2022/08/10 05:17:39;;;;;;;9.35;8.35;;;;;;;22.35;57.98;95642.56;5025610;28;20128;-84
2022/08/10 05:20:05;;;;;;;10.25;8.23;;;;;;;22.56;58.17;95644.78;5025701;28;20496;-83
2022/08/10 05:22:32;;;;;;;9.27;8.18;;;;;;;22.80;57.34;95640.00;5025360;28;20041;-83
2022/08/10 05:24:57;;;;;;;11.25;8.90;;;;;;;22.83;57.79;95638.66;5025655;28;20415;-83
2022/08/10 05:27:23;;;;;;;11.45;8.90;;;;;;;22.75;57.88;95642.66;5039764;28;20025;-84
2022/08/10 05:29:48;;;;;;;12.68;9.52;;;;;;;22.79;57.34;95641.09;5044964;28;20029;-82
2022/08/10 05:32:14;;;;;;;13.13;9.07;;;;;;;22.84;58.19;95637.59;5039790;28;20033;-83
2022/08/10 05:34:39;;;;;;;10.70;9.32;;;;;;;22.87;57.60;95634.38;5019817;28;20037;-81
2022/08/10 05:37:05;;;;;;;12.20;9.90;;;;;;;22.99;57.51;95639.72;5033000;28;20025;-83
2022/08/10 05:39:30;;;;;;;12.40;9.85;;;;;;;23.17;57.02;95635.88;5018045;28;20025;-82
2022/08/10 05:41:56;;;;;;;15.50;10.18;;;;;;;22.92;57.67;95628.13;5017430;28;20022;-83
2022/08/10 05:44:21;;;;;;;13.13;9.95;;;;;;;22.83;57.75;95639.50;5031968;28;20036;-82
2022/08/10 05:46:49;;;;;;;11.57;10.15;;;;;;;22.76;57.50;95636.13;5034669;28;20029;-82
2022/08/10 05:49:15;;;;;;;12.18;8.93;;;;;;;23.00;57.59;95638.66;5035421;28;20025;-83
2022/08/10 05:51:42;;;;;;;12.35;10.35;;;;;;;23.23;57.07;95634.03;5037241;28;20063;-83
2022/08/10 05:54:14;;;;;;;10.75;9.65;;;;;;;23.29;56.65;95635.78;5040662;28;20550;-82
2022/08/10 05:56:40;;;;;;;13.73;10.23;;;;;;;23.30;56.26;95639.31;5037863;28;20040;-82
2022/08/10 05:59:05;;;;;;;10.77;9.68;;;;;;;23.34;56.45;95632.28;5040998;28;20028;-82
2022/08/10 06:01:31;;;;;;;12.57;10.25;;;;;;;23.60;55.57;95637.25;5034918;28;20527;-83
2022/08/10 06:03:57;;;;;;;12.25;10.90;;;;;;;23.69;55.34;95641.19;5018869;28;20565;-82
2022/08/10 06:06:22;;;;;;;13.77;11.43;;;;;;;23.54;56.02;95641.81;5043764;28;20025;-83
2022/08/10 06:08:49;;;;;;;12.98;10.82;;;;;;;23.53;55.67;95634.72;5049114;28;20040;-83
2022/08/10 06:11:14;;;;;;;15.05;10.75;;;;;;;23.59;55.73;95641.91;5047073;28;20053;-82
2022/08/10 06:16:25;;;;;;;12.40;11.10;;;;;;;23.53;56.23;95629.22;5033992;28;20105;-81
2022/08/10 06:18:50;;;;;;;13.52;11.18;;;;;;;23.44;56.42;95635.16;5046878;28;20455;-80
2022/08/10 06:21:15;;;;;;;14.23;11.27;;;;;;;23.39;56.23;95631.53;5042477;28;20498;-79
2022/08/10 06:23:41;;;;;;;12.63;11.18;;;;;;;23.58;55.97;95635.63;5034384;28;20042;-78
2022/08/10 06:26:07;;;;;;;16.65;11.68;;;;;;;23.68;55.88;95645.03;5034220;28;20285;-78
2022/08/10 06:28:38;;;;;;;14.90;12.23;;;;;;;23.75;55.49;95629.22;5033289;28;20017;-83
2022/08/10 06:31:04;;;;;;;13.40;12.00;;;;;;;23.78;55.45;95642.38;5029474;28;20405;-83
2022/08/10 06:33:31;;;;;;;14.57;12.45;;;;;;;23.70;56.21;95640.09;5030931;28;20496;-84
2022/08/10 06:35:56;;;;;;;14.57;13.02;;;;;;;23.33;56.77;95644.28;5029198;28;20014;-84
2022/08/10 06:38:22;;;;;;;18.40;13.25;;;;;;;23.44;56.36;95642.56;5013511;28;20019;-83
2022/08/10 06:40:48;;;;;;;15.35;13.25;;;;;;;23.60;55.87;95642.72;5028388;28;20460;-88
2022/08/10 06:43:16;;;;;;;19.30;13.20;;;;;;;23.80;55.49;95637.50;5031195;28;20033;-89
2022/08/10 06:45:48;;;;;;;16.15;13.10;;;;;;;24.02;54.68;95635.81;5034755;28;20055;-87
2022/08/10 06:48:31;;;;;;;15.85;14.10;;;;;;;23.88;56.14;95630.72;5017472;28;20028;-87
2022/08/10 06:50:59;;;;;;;15.00;13.50;;;;;;;23.66;56.33;95638.97;5032755;28;20041;-90
2022/08/10 06:53:32;;;;;;;17.35;13.40;;;;;;;23.92;55.63;95633.78;5035583;28;20112;-85
2022/08/10 06:56:01;;;;;;;18.05;12.90;;;;;;;24.07;54.62;95636.66;5014432;28;20063;-86
2022/08/10 06:58:43;;;;;;;16.50;13.10;;;;;;;23.81;54.88;95639.13;5030416;28;20021;-87
2022/08/10 07:01:12;;;;;;;13.47;12.07;;;;;;;24.06;53.52;95637.78;5035735;28;20108;-80
2022/08/10 07:03:41;;;;;;;14.00;12.57;;;;;;;24.22;54.02;95632.47;5039421;28;20038;-80
2022/08/10 07:06:07;;;;;;;14.38;12.07;;;;;;;24.42;53.80;95637.28;5031199;28;20018;-80
2022/08/10 07:08:33;;;;;;;13.38;11.98;;;;;;;24.78;52.75;95624.94;5019114;28;20025;-81
2022/08/10 07:10:59;;;;;;;14.95;11.68;;;;;;;24.99;51.42;95623.19;5026794;28;20067;-82
2022/08/10 07:13:25;;;;;;;18.15;11.75;;;;;;;25.02;51.64;95632.84;5022207;28;20025;-82
2022/08/10 07:15:50;;;;;;;13.85;11.13;;;;;;;24.96;51.10;95628.38;5034833;28;20032;-89
2022/08/10 07:18:16;;;;;;;13.70;11.75;;;;;;;24.73;51.70;95617.50;5036723;28;20036;-85
2022/08/10 07:20:43;;;;;;;15.32;11.52;;;;;;;24.55;52.35;95624.25;5020150;28;20025;-84
2022/08/10 07:23:10;;;;;;;11.85;10.55;;;;;;;24.61;51.18;95622.38;5034855;28;20120;-85
2022/08/10 07:25:35;;;;;;;12.70;10.65;;;;;;;24.89;49.83;95620.38;5015926;28;20079;-82
2022/08/10 07:28:01;;;;;;;16.38;10.32;;;;;;;25.16;50.16;95612.06;5010779;28;20033;-82
2022/08/10 07:30:30;;;;;;;10.98;9.35;;;;;;;25.29;48.88;95621.72;5025353;28;20696;-83
2022/08/10 07:32:55;;;;;;;12.27;9.90;;;;;;;25.38;48.82;95624.78;5024324;28;20051;-83
2022/08/10 07:35:21;;;;;;;14.35;9.60;;;;;;;25.44;49.31;95620.13;5026787;28;20022;-85
2022/08/10 07:37:48;;;;;;;17.08;9.90;;;;;;;25.36;48.15;95626.97;5008420;28;20424;-82
2022/08/10 07:40:14;;;;;;;15.07;10.23;;;;;;;25.67;47.21;95627.13;5023583;28;20029;-83
2022/08/10 07:42:39;;;;;;;12.65;9.05;;;;;;;25.73;46.64;95622.47;5025318;28;20025;-84
2022/08/10 07:45:05;;;;;;;13.50;10.40;;;;;;;25.75;46.63;95624.94;5007232;28;20484;-83
2022/08/10 07:47:43;;;;;;;12.57;9.48;;;;;;;25.78;46.61;95622.50;5008390;28;20025;-82
2022/08/10 07:50:11;;;;;;;10.80;9.63;;;;;;;25.91;46.49;95625.81;5023413;28;20420;-83
2022/08/10 07:52:37;;;;;;;14.70;10.07;;;;;;;25.89;47.25;95617.03;5024456;28;20435;-82
2022/08/10 07:55:02;;;;;;;10.43;9.40;;;;;;;25.89;46.63;95617.03;5006938;28;20025;-83
2022/08/10 07:57:29;;;;;;;19.55;9.95;;;;;;;26.00;46.23;95621.47;5007051;28;20021;-83
2022/08/10 07:59:55;;;;;;;19.52;9.80;;;;;;;25.94;46.13;95619.78;5025561;28;20022;-83
2022/08/10 08:02:27;;;;;;;13.07;8.90;;;;;;;26.04;45.43;95613.47;5025236;28;20139;-83
2022/08/10 08:04:53;;;;;;;21.05;9.45;;;;;;;26.17;45.41;95612.13;5025390;28;20025;-83
2022/08/10 08:07:18;;;;;;;16.70;9.48;;;;;;;26.16;45.38;95611.31;5025385;28;20382;-83
2022/08/10 08:09:44;;;;;;;12.63;8.40;;;;;;;26.18;45.46;95605.56;5008840;28;20025;-83
2022/08/10 08:12:09;;;;;;;11.15;8.60;;;;;;;26.03;45.42;95607.19;5024604;28;20038;-83
2022/08/10 08:14:35;;;;;;;10.40;8.13;;;;;;;26.20;45.06;95605.28;5024917;28;20025;-83
2022/08/10 08:17:00;;;;;;;13.70;8.20;;;;;;;26.23;44.92;95604.72;5026227;28;20030;-83
2022/08/10 08:19:26;;;;;;;9.52;8.52;;;;;;;26.19;45.13;95598.94;5026049;28;20561;-82
2022/08/10 08:21:53;;;;;;;12.85;8.80;;;;;;;26.23;44.67;95601.97;5026251;28;20455;-82
2022/08/10 08:24:18;;;;;;;13.90;8.68;;;;;;;26.25;44.71;95603.34;5024732;28;20029;-83
2022/08/10 08:26:44;;;;;;;15.23;8.10;;;;;;;26.31;44.28;95600.59;5026032;28;20056;-82
2022/08/10 08:29:10;;;;;;;11.63;8.10;;;;;;;26.45;43.53;95601.75;5025956;28;20029;-83
2022/08/10 08:31:35;;;;;;;10.00;8.13;;;;;;;26.48;44.31;95601.19;5025972;28;20125;-83
2022/08/10 08:34:00;;;;;;;11.75;8.20;;;;;;;26.49;44.09;95602.81;5024600;28;20121;-83
2022/08/10 08:36:26;;;;;;;8.90;8.02;;;;;;;26.59;42.94;95595.66;5008168;28;20381;-83
2022/08/10 08:38:51;;;;;;;61.80;13.55;;;;;;;26.73;43.30;95596.75;5008115;28;20084;-83
2022/08/10 08:41:50;;;;;;;19.90;9.50;;;;;;;26.76;43.69;95587.94;5024563;28;20021;-83
2022/08/10 08:44:41;;;;;;;333.25;40.83;;;;;;;26.81;43.14;95594.56;5024656;28;20072;-83
2022/08/10 08:47:12;;;;;;;581.50;72.82;;;;;;;26.63;42.81;95591.28;5008483;28;20025;-83
2022/08/10 08:50:17;;;;;;;13.23;6.93;;;;;;;27.08;41.69;95586.00;5024069;28;20493;-83
2022/08/10 08:53:19;;;;;;;6.90;5.32;;;;;;;27.41;39.74;95593.84;5024882;28;20026;-83
2022/08/10 08:55:51;;;;;;;13.70;8.02;;;;;;;27.57;38.50;95594.63;5024355;28;20407;-83
2022/08/10 08:58:22;;;;;;;12.50;5.07;;;;;;;27.64;37.95;95592.38;5025746;28;20034;-82
2022/08/10 09:00:56;;;;;;;6.13;4.80;;;;;;;27.49;38.20;95587.75;5025966;28;20109;-84
2022/08/10 09:03:24;;;;;;;10.52;7.07;;;;;;;27.52;38.09;95584.44;5024599;28;20064;-83
2022/08/10 09:05:59;;;;;;;18.50;14.27;;;;;;;27.80;38.31;95589.56;5025843;28;20021;-84
2022/08/10 09:09:02;;;;;;;6.00;4.20;;;;;;;27.62;38.04;95582.75;5025492;28;20029;-84
2022/08/10 09:11:44;;;;;;;6.10;3.40;;;;;;;27.89;38.10;95584.31;5025671;28;20419;-82
2022/08/10 09:14:20;;;;;;;108.47;14.13;;;;;;;27.49;38.31;95576.75;5024622;28;20026;-83
2022/08/10 09:16:56;;;;;;;23.98;5.90;;;;;;;27.82;37.66;95586.53;5024106;28;20037;-84
2022/08/10 09:19:30;;;;;;;10.00;4.25;;;;;;;28.05;37.80;95575.94;5024555;28;20022;-84
2022/08/10 09:22:12;;;;;;;6.65;3.83;;;;;;;27.72;38.09;95579.97;5024149;28;20574;-84
2022/08/10 09:24:43;;;;;;;7.45;3.95;;;;;;;27.72;37.79;95573.63;5024324;28;20125;-83
2022/08/10 09:27:19;;;;;;;7.30;3.80;;;;;;;27.91;37.45;95573.78;5028830;28;20072;-85
2022/08/10 09:29:53;;;;;;;20.98;5.20;;;;;;;28.31;36.52;95572.97;5011503;28;20030;-82
2022/08/10 09:32:35;;;;;;;9.52;4.03;;;;;;;28.10;37.17;95570.38;5029762;28;20428;-83
2022/08/10 09:35:12;;;;;;;7.78;3.97;;;;;;;28.43;37.01;95567.94;5028065;28;20029;-83
2022/08/10 09:38:02;;;;;;;6.90;3.30;;;;;;;28.60;36.10;95572.22;5029916;28;20032;-84
2022/08/10 09:40:52;;;;;;;8.48;4.05;;;;;;;28.56;35.81;95562.84;5012217;28;20079;-83
2022/08/10 09:43:39;;;;;;;9.52;4.55;;;;;;;28.53;36.53;95571.72;5029226;28;20092;-84
2022/08/10 09:46:07;;;;;;;10.23;3.42;;;;;;;28.59;36.12;95562.28;5028134;28;20112;-84
2022/08/10 09:48:38;;;;;;;7.50;3.53;;;;;;;28.07;37.24;95565.44;5029472;28;20100;-84
2022/08/10 09:51:29;;;;;;;14.57;3.83;;;;;;;28.52;37.32;95556.28;5029243;28;20044;-84
2022/08/10 09:53:58;;;;;;;7.20;3.97;;;;;;;28.62;36.51;95564.47;5022860;28;20277;-85
2022/08/10 09:56:47;;;;;;;12.80;5.90;;;;;;;28.74;35.74;95551.09;5028984;28;20120;-83
2022/08/10 09:59:16;;;;;;;8.95;4.60;;;;;;;28.83;34.94;95553.22;5027350;28;20099;-83
2022/08/10 10:01:54;;;;;;;7.22;3.78;;;;;;;28.83;35.69;95548.53;5029003;28;20124;-83
2022/08/10 10:05:07;;;;;;;12.57;4.57;;;;;;;28.88;35.39;95551.25;5027542;28;20036;-84
2022/08/10 10:07:33;;;;;;;14.40;3.90;;;;;;;28.81;35.50;95549.94;5032120;28;20049;-83
2022/08/10 10:10:07;;;;;;;11.48;4.20;;;;;;;28.86;35.55;95547.09;5010795;28;20029;-83
2022/08/10 10:12:53;;;;;;;11.40;4.18;;;;;;;28.79;36.39;95546.66;5027388;28;20466;-83
2022/08/10 10:15:47;;;;;;;9.10;3.83;;;;;;;28.56;37.71;95543.56;5027535;28;20033;-84
2022/08/10 10:18:16;;;;;;;6.93;3.67;;;;;;;28.51;37.29;95549.94;5026960;28;20045;-84
2022/08/10 10:20:56;;;;;;;8.00;4.25;;;;;;;28.55;37.70;95545.47;5027277;28;20033;-84
2022/08/10 10:23:38;;;;;;;6.97;4.07;;;;;;;28.50;37.44;95548.31;5028357;28;20113;-84
2022/08/10 10:26:40;;;;;;;8.70;4.00;;;;;;;28.64;37.39;95548.44;5026867;28;20029;-83
2022/08/10 10:29:16;;;;;;;5.97;3.78;;;;;;;28.50;37.42;95562.91;5027079;28;20045;-83
2022/08/10 10:31:48;;;;;;;6.70;3.90;;;;;;;28.42;37.15;95544.25;5028576;28;20018;-84
2022/08/10 10:34:44;;;;;;;9.32;3.97;;;;;;;28.30;37.79;95552.00;5026757;28;20389;-84
2022/08/10 10:37:09;;;;;;;6.50;3.90;;;;;;;28.04;37.44;95543.94;5028021;28;20033;-83
2022/08/10 10:39:35;;;;;;;4.25;3.55;;;;;;;27.93;38.03;95537.69;5010186;28;20033;-83
2022/08/10 10:42:29;;;;;;;6.40;3.78;;;;;;;28.04;38.10;95547.53;5010249;28;20104;-83
2022/08/10 10:45:03;;;;;;;8.98;4.07;;;;;;;28.00;37.71;95535.44;5028392;28;20035;-83
2022/08/10 10:47:45;;;;;;;7.07;3.72;;;;;;;27.74;38.15;95547.47;5026358;28;20431;-83
2022/08/10 10:50:12;;;;;;;6.05;3.40;;;;;;;27.97;37.99;95538.78;5026747;28;20033;-83
2022/08/10 10:53:04;;;;;;;5.35;3.50;;;;;;;28.12;38.14;95532.31;5027839;28;20111;-84
2022/08/10 10:55:44;;;;;;;5.82;3.83;;;;;;;28.17;37.29;95532.28;5026457;28;20318;-83
2022/08/10 10:58:39;;;;;;;9.98;4.05;;;;;;;28.12;37.13;95524.03;5026605;28;20400;-83
2022/08/10 11:01:20;;;;;;;7.65;4.57;;;;;;;28.07;37.94;95518.59;5026051;28;20129;-83
2022/08/10 11:04:26;;;;;;;10.27;6.15;;;;;;;28.20;38.13;95523.44;5028201;28;20034;-83
2022/08/10 11:07:02;;;;;;;9.70;5.35;;;;;;;28.11;38.00;95516.88;5028561;28;20068;-85
2022/08/10 11:09:33;;;;;;;9.57;4.90;;;;;;;28.30;38.42;95519.75;5025817;28;20043;-84
2022/08/10 11:11:59;;;;;;;7.28;4.25;;;;;;;28.37;37.32;95516.69;5026291;28;20515;-83
2022/08/10 11:14:45;;;;;;;5.85;3.72;;;;;;;28.61;36.75;95518.69;5025935;28;20385;-84
2022/08/10 11:17:16;;;;;;;4.85;3.85;;;;;;;28.71;36.68;95532.34;5026265;28;20053;-84
2022/08/10 11:19:57;;;;;;;5.90;3.97;;;;;;;28.69;36.21;95525.50;5010459;28;20029;-84
2022/08/10 11:22:31;;;;;;;7.18;3.95;;;;;;;28.77;37.40;95518.50;5026108;28;20036;-84
2022/08/10 11:25:20;;;;;;;4.70;3.50;;;;;;;28.84;36.23;95528.09;5026718;28;20040;-83
2022/08/10 11:27:57;;;;;;;5.35;3.60;;;;;;;28.94;35.61;95520.81;5027499;28;20045;-84
2022/08/10 11:30:48;;;;;;;4.75;3.58;;;;;;;28.78;36.60;95509.94;5026937;28;20531;-84
2022/08/10 11:33:25;;;;;;;6.38;3.78;;;;;;;28.79;36.31;95508.00;5027535;28;20056;-83
2022/08/10 11:36:30;;;;;;;6.15;3.30;;;;;;;28.94;35.72;95510.59;5025784;28;20415;-84
2022/08/10 11:39:01;;;;;;;4.85;3.25;;;;;;;29.00;35.00;95503.13;5027703;28;20090;-83
2022/08/10 11:41:48;;;;;;;6.18;3.35;;;;;;;28.98;35.11;95503.41;5029525;28;20124;-83
2022/08/10 11:44:21;;;;;;;5.18;3.60;;;;;;;28.87;35.08;95493.56;5025550;28;20037;-83
2022/08/10 11:46:52;;;;;;;3.72;3.33;;;;;;;28.80;34.88;95488.41;5025827;28;20039;-83
2022/08/10 11:49:46;;;;;;;5.35;3.38;;;;;;;28.56;35.81;95482.88;5025280;28;20059;-83